Filtrer par Nom Sexe Groupe d'age
Picarde Baie de Somme GranFondo 2019
RG. DOS. TEMPS CAT RG. POINTS
1 208 MERCKX NIELS 04:35:23.59 C 1 300.00 TIELT-WINGE, Belgique
2 12 STAS BRECHT 04:35:23.77 C 2 299.00 HULDENBERG, Belgique
3 117 VANGHELUWE SEPPE 04:35:26.16 C 3 298.00 meulebeke, Belgique
4 342 VAN DER JEUGHT STIJN 04:35:42.82 D 1 300.00 Adegem, Belgique
5 339 SPYSSCHAERT ANTHONY 04:36:12.13 D 2 299.00 Knokke, Belgique
6 294 VANTON LANDER 04:36:18.53 D 3 298.00 OVERIJSE, Belgique
7 277 LAPIERE WARD 04:36:38.70 D 4 297.00 Moorslede, Belgique
8 532 BAEKELAND CEDRIC 04:36:43.61 C 4 297.00 Roeselare, Belgique
9 816 DEVROYE KIM 04:36:52.41 C 5 296.00 Meulebeke, Belgique
10 57 DE WAELE FRANK 04:37:02.10 F 1 300.00 LOKEREN, Belgique
11 20 ALLEMAN TIM 04:37:08.97 D 5 296.00 Bredene, Belgique
12 308 VANTON JELLE 04:37:10.44 C 6 295.00 OVERIJSE, Belgique
13 214 HANSEEUW JELLE 04:37:12.07 D 6 295.00 Jabbeke, Belgique
14 176 SCHUERMANS ROBIN 04:37:16.78 C 7 294.00 8930 - MENEN, Belgique
15 243 WARNIER ANTOINE 04:37:23.34 C 8 293.00 Xhendremael, Belgique
16 327 WILLEMS STEFAAN 04:37:25.33 D 7 294.00 WERTERLO, Belgique
17 59 CHABERT HANS 04:37:26.54 E 1 300.00 SINT-GENESIUS-RODE, Belgique
18 954 HOLVOET MATTIJS 04:37:30.00 D 8 293.00 AALTER, Belgique
19 953 VAN WIJMELBEKE BEN 04:37:33.66 D 9 292.00 NOKERE, Belgique
20 106 VEYS MATHIAS 04:37:34.78 D 10 291.00 Brugge, Belgique
21 116 LAMMENS KEVIN 04:37:36.50 D 11 290.00 Ellezelles, Afghanistan
22 820 LORIOUX ALEXANDRE 04:37:38.04 D 12 289.00 Sèvres-Anxaumont, France
23 78 VAN LOON TOM 04:37:40.54 E 2 299.00 Gierle, Belgique
24 99 DE VECCHI DAVID 04:37:41.93 E 3 298.00 NAN S/S THIL, France
25 780 TALLIE KARIN 04:37:42.97 F 2 299.00 Breskens, Namibie
26 185 CORNELIS NICO 04:37:43.00 D 13 288.00 AALTER, Belgique
27 206 VANDAMME BENJAMIN 04:37:55.17 D 14 287.00 Merchtem, Belgique
28 213 CALLENAERE ALDO 04:37:56.87 D 15 286.00 ZWANKENDAMME, Belgique
29 38 TRUBACZ LAURENT 04:38:02.06 E 4 297.00 ALBAIN ST NAZAIRE, France
30 810 DEVOS ROMAIN 04:38:07.65 D 16 285.00 Fournes en weppes, France
31 346 BACHELET BENJAMIN 04:38:07.65 C 9 292.00 CAMBRON, France
32 664 DECAESTEKER FREDERIK 04:40:06.03 E 5 296.00 Diksmuide, Belgique
33 51 GOURGUECHON BAPTISTE 04:40:29.10 C 10 291.00 AILLY SUR SOMME, France
34 845 ROGIERS JORIS 04:41:10.11 E 6 295.00 LOCHRISTI, Belgique
35 1 DEMARE ARNAUD 04:43:11.83 PRO 1 300.00 , France
36 36 DURAND THIBAULT 04:43:12.77 C 11 290.00 , France
37 273 VANHEE THIJS 04:51:24.14 D 17 284.00 MOORSLEDE, Belgique
38 502 KNOCKAERT SAMMY 04:51:41.46 D 18 283.00 Vlamertinge, Belgique
39 793 DEVRIES JONAS 04:51:55.94 E 7 294.00 PELLENBERG, Belgique
40 96 VAN LAETHEM TOM 04:51:59.00 E 8 293.00 Sint-Lievens-Houtem, Belgique
41 31 BOSSERS MAARTEN 04:52:03.07 E 9 292.00 TONGEREN, Belgique
42 291 PAYET WILLY 04:52:05.22 E 10 291.00 ARRAS, France
43 317 HIMPE CEDRIC 04:52:31.02 C 12 289.00 WAREGEM, Belgique
44 341 HOES STEF 04:53:35.07 D 19 282.00 Geel, Belgique
45 818 VAN VELTHOVEN MARK 04:54:46.42 C 13 288.00 Wateringen, Pays-Bas
46 592 STROOBANT OLIVIER 04:54:52.29 E 11 290.00 onze lieve vrouw waver, Belgique
47 908 DEMANET THOMAS 04:54:55.74 C 14 287.00 Butry, France
48 821 VAN DE PERRE LIEVEN 04:54:56.14 F 3 298.00 Kieldrecht, Belgique
49 903 LANDRY ROMUALD 04:55:00.55 E 12 289.00 Ennery, France
50 896 MARTINS VINCENT 04:55:02.36 D 20 281.00 SARTROUVILLE, France
51 340 LE ROY ADRIEN 04:55:03.93 D 21 280.00 l Isle Adam, France
52 276 WARGEE STEVEN 04:55:06.57 D 22 279.00 Loonbeek, Belgique
53 616 VERDONCK SIMON 04:55:07.30 C 15 286.00 Maldegem, Belgique
54 822 D ANGELO BAPTISTE 04:55:22.45 C 16 285.00 labruyére, France
55 687 COLMAN JEROEN 04:55:26.61 C 17 284.00 Waasmusnter, Belgique
56 904 CHEVAL VALENTIN 04:55:27.55 C 18 283.00 Beaumetz les cambrai, France
57 412 LEROY GUILLAUME 04:55:31.35 C 19 282.00 HAM-SUR-HEURE, Belgique
58 645 SCHAAP ROBBERT 04:55:32.35 C 20 281.00 Leidschendam, Pays-Bas
59 42 BUCOVAZ ALAIN 04:55:34.66 F 4 297.00 VILVOORDE, Belgique
60 919 TAELMAN THIBAUT 04:55:36.24 C 21 280.00 Waregem, Belgique
61 434 VAN HAMME WIM 04:55:37.52 E 13 288.00 Pollare, Belgique
62 647 DE NIET ERIK 04:55:39.09 D 23 278.00 Den Haag, Pays-Bas
63 747 DE WITTE MATHIAS 04:55:39.74 D 24 277.00 Torhout, Belgique
64 683 LAPERRE CHRISTOPHE 04:55:40.78 D 25 276.00 rumbeke, Belgique
65 422 DEWAELE BART 04:55:41.28 E 14 287.00 MEERBEKE, Belgique
66 748 GOUSSEY MAARTEN 04:55:42.22 C 22 279.00 Roesbrugge, Belgique
67 786 GILLE THOMAS 04:55:44.65 E 15 286.00 HEVERLEE, Belgique
68 897 ANDRIEU THIERRY 04:55:44.83 F 5 296.00 Scherpenheuvel, Belgique
69 951 DECLEIR GIANNI 04:55:46.96 C 23 278.00 Kortemark, Belgique
70 949 KEYEUX NICOLAS 04:55:47.35 E 16 285.00 LIERNEUX, Belgique
71 231 GARENAUX CHRISTOPHE 04:55:47.43 F 6 295.00 stella plage, France
72 926 GILLIAERT JOHAN 04:55:47.79 E 17 284.00 Kessel-Lo, Belgique
73 852 ROBBERECHTS IGNACE 04:55:48.96 D 26 275.00 LONDERZEEL, Belgique
74 259 LEDOUX SASJA 04:55:49.71 E 18 283.00 MOORSLEDE, Belgique
75 537 VERHELST KOEN 04:55:50.07 D 27 274.00 Marke, Belgique
76 274 DUBOS CEDRIC 04:55:50.27 E 19 282.00 THURY SOUS CLERMONT, France
77 272 FOUDRAINE MARCEL 04:55:51.42 E 20 281.00 MIDDELBURG, Pays-Bas
78 268 VERVERKEN JOERI 04:55:51.47 D 28 273.00 MOORSLEDE, Belgique
79 742 KIMPEN BERT 04:55:52.38 E 21 280.00 Ham, Belgique
80 758 FLIGNY ARNAUD 04:55:52.71 D 29 272.00 Etaples sur mer, France
81 744 DE KRAKER RINCO 04:55:53.95 D 30 271.00 Middelburg, Pays-Bas
82 445 PRIGENT JULIEN 04:55:57.44 D 31 270.00 Quessoy, France
83 236 VAN ELP KLARENZO 04:56:01.30 C 24 277.00 STAPHORST, Pays-Bas
84 19 TROUVE KRISTOF 04:56:01.74 E 22 279.00 , Belgique
85 18 CNUDDE YVES 04:56:02.06 E 23 278.00 NAZARETH, Belgique
86 207 WARSON LAURENS 04:56:02.32 D 32 269.00 Lanaken, Belgique
87 56 DE WAELE GUY 04:56:04.91 F 7 294.00 LOKEREN, Belgique
88 716 MALESYS VINCENT 04:56:05.13 C 25 276.00 BOISSY-SAINT-LEGER, France
89 144 SPITAELS DIMITRY 04:56:05.44 C 26 275.00 BRAKEL, Belgique
90 238 VAN DE MOORTELE SVEN 04:56:06.09 E 24 277.00 Machelen - Zulte, Belgique
91 298 DE RIDDER RICHARD 04:56:06.69 F 8 293.00 Lebbeke, Belgique
92 289 DESMET PASCAL 04:56:06.94 E 25 276.00 kortrijk, Belgique
93 336 DELBOULLE NICOLAS 04:56:07.04 E 26 275.00 SAINTE MARGUERITE SUR DUCLAIR, France
94 279 VANDERROOST FREDERIK 04:56:07.67 D 33 268.00 Halle, Belgique
95 300 ROMEYNS KOEN 04:56:08.73 D 34 267.00 Geraardsbergen, Belgique
96 115 VERMOENS PHILIP 04:56:10.96 E 27 274.00 Essen, Belgique
97 935 GROSSI REMY 04:56:11.28 C 27 274.00 BOUVIGNY BOYEFFLES, France
98 267 ALDERMAN JOHN 04:56:12.83 F 9 292.00 Windsor, Royaume-Uni
99 26 VAN GILS KOEN 04:56:13.05 D 35 266.00 Essen, Belgique
100 329 CORDYN SAM 04:56:14.50 D 36 265.00 HALLE, Belgique
101 171 WAEYAERT GREGORY 04:56:14.82 C 28 273.00 HOUTHULST, Belgique
102 135 DELOOF JEAN PIERRE 04:56:14.90 F 10 291.00 Roeselare, Belgique
103 269 VERHAEGHE STEFAN 04:56:15.10 F 11 290.00 Halle, Belgique
104 95 SMEETS PETER 04:56:19.34 D 37 264.00 Erps-Kwerps, Belgique
105 240 SOETAERT DION 04:56:20.18 F 12 289.00 MENEN, Belgique
106 281 DE WINNE DAVY 04:56:23.53 D 38 263.00 SCHELLEBELLE, Belgique
107 612 LEFEBVRE LENNARD 04:56:23.60 C 29 272.00 Geluwe, Belgique
108 326 VANDERSCHUEREN STEVEN 04:56:24.48 E 28 273.00 Zulte, Belgique
109 233 DIRHEIMER MICKAEL 04:56:26.04 D 39 262.00 Challans, France
110 142 KLIS DIDIER 04:56:27.24 F 13 288.00 LOON PLAGE, France
111 322 VAN DER STOCK PETER 04:56:27.85 E 29 272.00 ZELE, Belgique
112 101 DE COSTER GUY 04:56:28.66 F 14 287.00 Ninove, Belgique
113 112 VAN NIEUWENHOVE FREE 04:56:29.69 D 40 261.00 BUGGENHOUT, Belgique
114 303 KEERSMAEKERS MICHAEL 04:56:30.13 D 41 260.00 Weelde, Belgique
115 188 VAN HOLSBEECK ANDY 04:56:30.90 E 30 271.00 WATOU, Belgique
116 316 MERTENS ERWIN 04:56:33.31 F 15 286.00 WESTERLO, Belgique
117 81 VAN LANDEGHEM HEDWIG 04:56:33.83 F 16 285.00 Stekene, Belgique
118 221 WARNIER LUC 04:56:34.72 F 17 284.00 OTHEE, Belgique
119 334 VANHAESEBROECK HANS 04:56:35.11 E 31 270.00 DEINZE, Belgique
120 299 HERREMAN PIET 04:56:35.48 F 18 283.00 Gent, Belgique
121 125 VANDENDRIESSCHE ERIC 04:56:37.25 G2 1 300.00 Roeselare, Belgique
122 169 DE LAENDER STEVEN 04:56:38.02 E 32 269.00 Lochristi, Belgique
123 854 LOWAGIE KEVIN 04:56:42.98 D 42 259.00 Lauwe, Belgique
124 104 SCAPICCHIO JOERI 04:56:44.06 D 43 258.00 DIEST (DEURNE), Belgique
125 349 SCHNEIDER GREGORY 04:56:46.72 E 33 268.00 ABBEVILLE, France
126 80 LALOUETTE SEBASTIEN 04:56:53.40 E 34 267.00 EAUCOURT S/S, France
127 338 MERCIRIS FABIEN 04:56:56.30 E 35 266.00 Amiens, France
128 37 FARCY EMMANUELLE 04:56:56.89 AB 1 300.00 PONT-REMY, France
129 783 MIEZE SEBASTIEN 04:56:58.41 D 44 257.00 Coquelles, France
130 163 VANFLETEREN CHRISTOPHE 04:57:02.80 D 45 256.00 KORTRIJK, Belgique
131 58 VAN DEN BOSSCHE BEN 04:57:13.28 E 36 265.00 Wambeek, Belgique
132 177 VAN KEIRSBILCK ERIC 04:57:20.73 F 19 282.00 ASPER, Belgique
133 184 DIERICK BART 04:57:29.89 C 30 271.00 Sint-Pauwels, Belgique
134 33 BYTEBIER BAPTISTE 04:57:30.37 C 31 270.00 AMIENS, France
135 8 MISMAQUE JACQUES 04:57:32.40 F 20 281.00 BACHANT, France
136 301 VERZEELE BRECHT 04:57:35.14 D 46 255.00 DAMME, Belgique
137 335 HAERYNCK DAVID 04:57:54.32 D 47 254.00 Boezinge, Belgique
138 28 VERTRIEST BERT 04:58:47.04 E 37 264.00 NAZARETH, Belgique
139 191 MEISTER LAURENT 04:59:04.73 E 38 263.00 NANTEUIL LES MEAUX, France
140 66 FAES FABIO 05:00:04.82 D 48 253.00 Diepenbeek, Belgique
141 82 GEEROMS STIJN 05:00:07.51 E 39 262.00 Halle, Belgique
142 227 NAESSENS ROBBIE 05:00:13.83 E 40 261.00 LAUWE, Belgique
143 451 Timmermans Patrice 05:00:14.68 C 32 269.00 Hove, Belgique
144 24 LIPPI THIERRY 05:00:21.13 F 21 280.00 LA MOTTE SERVOLEX, France
145 479 BOARDMAN JEREMY 05:00:32.39 F 22 279.00 LONDON, Royaume-Uni
146 242 GORIS GEERT 05:00:36.89 F 23 278.00 Nazareth, Belgique
147 168 FAGART BERTRAND 05:00:40.01 E 41 260.00 SALOUEL, France
148 27 VANTHILLO HIDDE 05:00:50.93 D 49 252.00 Kalmthout, Belgique
149 152 ARNOE TOM 05:01:04.59 C 33 268.00 INGELMUNSTER, Belgique
150 53 DHONDT PETER 05:01:09.39 E 42 259.00 VILVOORDE, Belgique
151 293 HEUNET OLIVIER 05:01:11.20 F 24 277.00 NEUVILLE VITASSE, France
152 211 PRUIMBOOM GUIDO 05:01:23.61 E 43 258.00 MIDDELBURG, Pays-Bas
153 40 DESMET RUBEN 05:02:21.91 D 50 251.00 Bredene, Belgique
154 73 VAES NIELS 05:03:34.33 D 51 250.00 GUIGOVEN, Belgique
155 159 EULAERTS PATRICK 05:04:35.48 E 44 257.00 Machelen, Belgique
156 4538 UNAL BANU 05:05:35.28 A 1 300.00 , Belgique
157 540 PAUWELS KURT 05:06:23.30 F 25 276.00 Maldegem, Belgique
158 122 MAERTENS JURGEN 05:06:24.36 E 45 256.00 Roeselare, Belgique
159 306 VLOEMANS STEF 05:06:36.68 C 34 267.00 LILLE, Belgique
160 205 DEBUISSON JULIAN 05:07:05.14 D 52 249.00 MERICOURT, France
161 278 DOBBENIE JAN 05:07:42.88 E 46 255.00 SCHELLEBELLE, Belgique
162 721 VAN DER CRUYS JAN 05:08:08.01 E 47 254.00 TERNAT, Belgique
163 847 GILLON GUILLAUME 05:08:08.08 D 53 248.00 PUCHEVILLERS, France
164 719 VANOVERBEKE JOOST 05:08:15.66 E 48 253.00 Leuven, Belgique
165 868 TILLIER RICHARD 05:08:36.40 E 49 252.00 Langeron, France
166 694 EECKHOUT KEVIN 05:08:36.97 D 54 247.00 Wetteren, Belgique
167 328 IMOLEON XAVIER 05:08:43.98 E 50 251.00 Parmain, France
168 234 VANEECKHOUT LOWIE 05:08:44.85 C 35 266.00 Ypres, Belgique
169 950 BEKAERT JULIEN 05:08:45.52 C 36 265.00 Braine l Alleud, Belgique
170 315 SANCHEZ JEAN MICHEL 05:08:47.13 F 26 275.00 ST GRATIEN, France
171 319 DUPREZ GUILLAUME 05:08:48.49 C 37 264.00 CROIXRAULT, France
172 567 STOFFERIS RIENO 05:08:56.98 E 51 250.00 Maldegem, Belgique
173 773 MORTIER KJELL 05:09:00.87 E 52 249.00 Eke, Belgique
174 760 BLOT MAXIME 05:09:02.41 C 38 263.00 OTHIS, France
175 772 MORTIER JENS 05:09:05.93 E 53 248.00 De Pinte, Belgique
176 739 DE RIDDER MARIO 05:09:06.69 E 54 247.00 Malderen, Belgique
177 846 MAHIEU JONAS 05:09:18.09 C 39 262.00 poperinge, Belgique
178 404 HINSINGER LIONEL 05:09:19.64 F 27 274.00 MONTLOUIS-SUR-LOIRE, France
179 708 WATZEELS NICK 05:09:21.59 D 55 246.00 SINT-PIETERS-LEEUW, Belgique
180 469 BRINGMANS GUY 05:09:24.07 D 56 245.00 MEEUWEN, Belgique
181 863 HENDRICKX BART 05:09:24.12 D 57 244.00 Lauwe, Belgique
182 802 VAN LYSEBETH MATHIAS 05:09:25.93 C 40 261.00 Lembeek, Belgique
183 803 GOOSSENS ARNO 05:09:27.28 C 41 260.00 Lembeek, Belgique
184 632 VAN MEGEN ROBBERT 05:09:27.94 F 28 273.00 MIDDELBURG, Pays-Bas
185 495 HUBERT CHARLES 05:09:29.37 D 58 243.00 MONS, Belgique
186 484 VAN GRIEKEN RAPHAEL 05:09:29.53 G2 2 299.00 MOL, Belgique
187 790 KERKHOF ALWIN 05:09:29.64 E 55 246.00 MIDDELBURG, Pays-Bas
188 190 WEEMAELS STEVEN 05:09:29.70 E 56 245.00 Huldenberg, Belgique
189 111 DECOTTIGNIES ROBIN 05:09:31.70 D 59 242.00 Kuurne, Belgique
190 161 FLEURENCE DANIEL 05:09:32.56 F 29 272.00 Savigny le Temple, France
191 921 OVERMEIRE RUDI 05:09:33.73 F 30 271.00 Vilvoorde, Belgique
192 3 NEDERLOF EDWIN 05:09:34.42 E 57 244.00 DEN HAAG, Pays-Bas
193 124 CASIER DIETER 05:09:34.79 D 60 241.00 Roeselare, Belgique
194 174 KERCKHAERT WIM 05:09:36.34 E 58 243.00 BLANKENBERGE, Belgique
195 47 HANSSENS CHRISTOPHE 05:09:36.73 F 31 270.00 FLETRE, France
196 123 ROSEZ DIEDERIK 05:09:39.11 D 61 240.00 Roeselare, Belgique
197 662 SLAGBOOM THIJS 05:09:40.44 D 62 239.00 Middelburg, Pays-Bas
198 309 GERMONPREZ DAVID 05:09:40.76 E 59 242.00 ZWEVEGEM, Belgique
199 952 LATINE KEN 05:09:42.28 D 63 238.00 OVERIJSE, Belgique
200 286 DE SCHRYVER SVEN 05:09:42.58 E 60 241.00 VOLLEZELE, Belgique
201 193 ANDERSON PETER 05:09:48.49 F 32 269.00 BARWICK-IN-ELMET, France
202 253 SCHIETECATTE STEVEN 05:09:48.79 E 61 240.00 ophasselt, Belgique
203 126 DE VRIENDT GEERT 05:09:50.36 G1 1 300.00 Roeselare, Belgique
204 241 DUBOIS GIL 05:09:51.13 E 62 239.00 Geraardsbergen, Belgique
205 282 DESTATSBADER CHRIST 05:09:51.33 F 33 268.00 DEERLIJK, Belgique
206 237 WALRAVENS TOM 05:09:53.01 D 64 237.00 Roosdaal, Belgique
207 204 RYCKBOSCH JAN 05:09:54.25 F 34 267.00 MELSELE, Belgique
208 895 DE WEIRDT KURT 05:09:56.26 E 63 238.00 SCHELLEBELLE, Belgique
209 879 VANCOMPERNOLLE MATHIJS 05:09:56.81 D 65 236.00 Laarne, Belgique
210 127 COOL CARL 05:09:57.20 E 64 237.00 Roeselare, Belgique
211 181 LEFEBURE BARRY 05:09:58.34 F 35 266.00 GELUWE, Belgique
212 229 LEQUIEN STEPHANE 05:09:58.56 E 65 236.00 REBREUVE SUR CANCHE, France
213 244 DE WEIRDT CHRISTOPHE 05:09:59.51 E 66 235.00 BUGGENHOUT, Belgique
214 167 DE WITTE MATTHIAS 05:10:00.21 C 42 259.00 IZEGEM, Belgique
215 76 GILIS RUDI 05:10:01.82 F 36 265.00 Sint-Truiden, Belgique
216 154 CARNOL IVAN 05:10:03.69 G1 2 299.00 LIMBOURG, Belgique
217 215 MALHERBE JEAN LUC 05:10:03.75 E 67 234.00 OTHEE, Belgique
218 246 BAECK PHILIPPE 05:10:04.59 E 68 233.00 BUGGENHOUT, Belgique
219 92 VAN CAUWENBERG KRISTOF 05:10:04.99 D 66 235.00 Sint-Amands, Belgique
220 75 SPAPEN DAVE 05:10:06.29 E 69 232.00 Brasschaat, Belgique
221 794 DELARACE PHILIPPE 05:10:09.80 F 37 264.00 CALAIS, France
222 140 VANSCHOONBEEK GUIDO 05:10:14.93 G1 3 298.00 Herk-de-Stad, Belgique
223 350 SCHNEIDER MAXIME 05:10:30.29 C 43 258.00 CAMBRON, France
224 789 LE FRENE GREGORY 05:10:53.60 E 70 231.00 SANTES, France
225 704 VAN ACKER BRUNO 05:10:53.75 D 67 234.00 wetteren, Belgique
226 877 VEIRMAN PETER 05:10:58.67 F 38 263.00 Ternat, Belgique
227 141 NECKEBROECK PETER 05:11:08.35 F 39 262.00 Appelterre, Belgique
228 409 ROUSSEAU CEDRIC 05:11:10.17 D 68 233.00 WALHAIN, Belgique
229 470 KAWA MARIAN 05:11:12.59 G1 4 297.00 UCCLE, Belgique
230 251 LAJOIE LAURENT 05:11:21.94 F 40 261.00 coulonges cohan, France
231 187 CALLEEUW JOHAN 05:11:34.53 F 41 260.00 INGELMUNSTER, Belgique
232 310 CHANDELIER ARNAUD 05:11:34.85 E 71 230.00 Eu, France
233 468 OSTYN STEVEN 05:11:35.40 E 72 229.00 LENDELEDE, Belgique
234 86 VAN EYNDE STEFAN 05:11:37.75 E 73 228.00 Deurne, Belgique
235 283 DAVY GEERINCK 05:11:46.78 D 69 232.00 GREMBERGEN, Belgique
236 132 DE BROUWER ROB 05:11:47.68 F 42 259.00 Roeselare, Belgique
237 15 VANSPRINGEL JOSEPH 05:11:53.90 G1 5 296.00 Vosselaar, Belgique
238 114 POLLENTIER BENNY 05:12:31.92 F 43 258.00 ICHTEGEM, Belgique
239 249 JOSSE BENOIT 05:12:33.88 D 70 231.00 Xhendremael, Belgique
240 450 TIMMERMANS FABIAN 05:13:14.72 C 44 257.00 Anvers, Belgique
241 35 COLLEN CEDRIC 05:13:43.95 E 74 227.00 , France
242 486 VAN DEN BERGHE DOMINIQUE 05:13:53.82 E 75 226.00 Brakel, Belgique
243 245 DEMYTTENAERE FREDERIC 05:14:06.70 D 71 230.00 GELUWE, Belgique
244 575 BARRANTES ANDRES 05:16:09.18 D 72 229.00 Bogota, Colombie
245 105 VAN DYCK KEVIN 05:16:52.29 C 45 256.00 OUD TURNHOUT, Belgique
246 128 HOLVOET VINCENT 05:17:34.86 D 73 228.00 Roeselare, Belgique
247 63 LABAERE KENNETH 05:17:36.91 C 46 255.00 Roeselare, Belgique
248 861 LISSENS PETER 05:17:37.35 F 44 257.00 Gent, Belgique
249 257 LAMBERT BRAM 05:17:42.63 E 76 225.00 BOTTELARE, Belgique
250 850 VASSEUR BRUNO 05:17:43.81 G1 6 295.00 OUTREAU, France
251 200 DAENEN HARRY 05:17:47.83 E 77 224.00 RIEMST, Belgique
252 330 ROY JEAN PHILIPPE 05:17:49.64 F 45 256.00 butry sur oise, France
253 55 D HOLLANDER JERRY 05:17:50.29 F 46 255.00 , Belgique
254 121 MORTIER LUC 05:17:58.12 F 47 254.00 Roeselare, Belgique
255 198 PENNEQUIN LAURENT 05:17:59.79 E 78 223.00 beaumont sur oise, France
256 966 VAN REETH RONALD 05:18:01.58 F 48 253.00 BOECHOUT, Belgique
257 305 WIDART DOMINIQUE 05:18:04.04 G1 7 294.00 Rendeux, Belgique
258 46 VAN BELLE KOEN 05:18:11.12 D 74 227.00 OVERIJSE, Belgique
259 693 EECKHOUT STEVEN 05:18:18.41 D 75 226.00 Wetteren, Belgique
260 736 CHEVALIER THIERRY 05:18:24.57 E 79 222.00 IFS, France
261 858 MOREAUX MAXIME 05:18:26.37 C 47 254.00 Blanmont, Belgique
262 456 DE BLANC WIM 05:18:33.94 E 80 221.00 SINT LIEVENS HOUTEM, Belgique
263 681 SHEHADEH JAMIL 05:18:34.46 E 81 220.00 Colchester, Royaume-Uni
264 172 BOGAERT TYBO 05:18:36.83 C 48 253.00 IZEGEM, Belgique
265 137 VERVAEKE DIETER 05:18:42.92 D 76 225.00 Desselgem, Belgique
266 157 BASKERVILLE JAMIE 05:18:45.44 F 49 252.00 Beckenham, Royaume-Uni
267 887 GARCIA DA SILVA FERNANDO 05:18:47.61 E 82 219.00 SURVILLIERS, France
268 325 VANDENBOSSCHE JOCHEN 05:18:50.50 D 77 224.00 PEPINGEN, Belgique
269 265 VAN DAELE YVE 05:18:52.18 F 50 251.00 Muizen, Belgique
270 158 STAELENS KEVIN 05:18:54.43 C 49 252.00 Roeselare, Belgique
271 910 LASSUY KURT 05:19:03.89 F 51 250.00 TIELT, Belgique
272 943 VARDAL HUSEYIN 05:19:24.27 E 83 218.00 LONDON, Royaume-Uni
273 657 VANTUYCKOM NICOLAS 05:19:24.50 D 78 223.00 assebroek, Belgique
274 287 PIRES PASCAL 05:19:25.98 F 52 249.00 LE PETIT QUEVILLY, France
275 775 GOSSELIN GUILLAUME 05:19:29.11 C 50 251.00 Sommereux, France
276 472 VENDE FRANCK 05:19:31.77 E 84 217.00 ST MESMIN, France
277 725 BELLON KEN 05:19:32.50 D 79 222.00 Buggenhout, Belgique
278 711 VAN DE VREKEN HANNES 05:19:33.49 D 80 221.00 Ledeberg, Belgique
279 623 CHAIDRON AMAURY 05:19:37.40 D 81 220.00 Buissonville, Belgique
280 830 VAN ROOY NIELS 05:19:41.46 C 51 250.00 Poederlee, Belgique
281 421 RAINERI PASCAL 05:19:45.49 F 53 248.00 SAVIGNY LE TEMPLE, France
282 471 DE LEEUW TONY 05:19:51.39 F 54 247.00 Ninove, Belgique
283 905 ALLEMAN JUAN 05:19:52.64 D 82 219.00 Deerlijk, Belgique
284 260 DEPOORTER JURGEN 05:19:54.59 E 85 216.00 TORHOUT, Belgique
285 313 SCHROEDER ULRICH 05:19:55.84 G2 3 298.00 MONT SAINT AIGNAN, France
286 480 BEETS PETER 05:19:56.76 E 86 215.00 Balen, Belgique
287 743 VAN ENDE GITTE 05:19:59.15 AB 2 299.00 Ham, Belgique
288 203 DE NAUW SIGFRIED 05:20:04.69 D 83 218.00 Ninove, Belgique
289 100 VANDEGHINSTE MARC 05:20:06.88 E 87 214.00 Roeselare, Belgique
290 44 BUYCK JASPER 05:20:07.94 C 52 249.00 RONSE, Belgique
291 156 TURNER DEAN 05:20:19.77 E 88 213.00 CHISLEHURST, Royaume-Uni
292 750 VERBEKE JONAS 05:20:21.38 D 84 217.00 sint-eloois-winkel, Belgique
293 25 SEGALA FAUSTO 05:20:27.82 G1 8 293.00 Osio Sotto, Italie
294 318 TRAULET LAURENT 05:20:29.79 F 55 246.00 EU, France
295 134 CALLENS LUC 05:20:34.10 F 56 245.00 Roeselare, Belgique
296 324 DE LAGREVOL REMI 05:20:35.69 E 89 212.00 BEAUVAIS, France
297 199 DERYCKE HANS 05:20:39.66 F 57 244.00 Overboelare, Belgique
298 559 BROUTIN MAXIME 05:20:43.89 D 85 216.00 RONCQ, France
299 88 MYNSBERGHE EDDY 05:20:53.56 F 58 243.00 Gent, Belgique
300 671 VAN DE LOOCK MATTHIAS 05:20:55.56 C 53 248.00 Oosterzele, Belgique
301 89 DELARUELLE BART 05:20:55.86 F 59 242.00 Merelbeke, Belgique
302 9 HAAST INGRID 05:21:06.36 AB 3 298.00 DORDRECHT, Pays-Bas
303 862 DRUANT BENOIT 05:21:06.41 D 86 215.00 Poperinge, Belgique
304 815 NOPPE BJORN 05:21:10.65 D 87 214.00 sint denijs, Belgique
305 143 FORIER PETER 05:21:12.99 E 90 211.00 HERK-DE-STAD, Belgique
306 138 SCHARLAEKEN DOMINIQUE 05:21:33.80 E 91 210.00 Roeselare, Belgique
307 130 FEYS YVES 05:21:34.73 F 60 241.00 brugge, Belgique
308 145 NAERT MARIJN 05:21:37.93 D 88 213.00 Roeselare, Belgique
309 16 ROOSE YANNIK 05:22:10.92 F 61 240.00 BRUXELLES, Belgique
310 284 BOUDEHEN PHILIPPE 05:22:19.19 F 62 239.00 OISSEL, France
311 685 LAPAUW LEANDER 05:22:55.52 D 89 212.00 roeselare, Belgique
312 461 ALLEN JAIE 05:23:24.54 D 90 211.00 Flancourt Crescy En Roumois, France
313 345 GATTI FRANCK 05:23:31.28 F 63 238.00 Beauvais, France
314 604 DARTHET PAUL 05:23:45.14 G1 9 292.00 Bruges, Belgique
315 729 DEPEYPER TOON 05:24:02.18 E 92 209.00 Lot, Belgique
316 936 DELANOYE MATTHIEU 05:24:44.87 D 91 210.00 BOUVIGNY BOYEFFLES, France
317 414 BOELS KRISTOF 05:25:17.23 D 92 209.00 BALEN, Belgique
318 343 DELARACE XAVIER 05:25:34.00 D 93 208.00 CALAIS, France
319 189 GROVES ALAN 05:25:57.56 F 64 237.00 Essex, Royaume-Uni
320 720 VERHEYE JEROEN 05:26:32.92 E 93 208.00 Merelbeke, Belgique
321 714 MAES JEAN-PAUL 05:26:52.94 F 65 236.00 Chayofa, Arona, Espagne
322 765 MESTDAGH JAN 05:26:55.95 E 94 207.00 Sint-Amandsberg, Belgique
323 219 SHAW PETER 05:27:25.45 D 94 207.00 Toddington, Dunstable, Royaume-Uni
324 666 BEKAERT LAURENS 05:27:40.42 D 95 206.00 Oudenaarde, Belgique
325 531 DE ZUTTER SONNY 05:27:42.98 D 96 205.00 POLLARE, Belgique
326 826 VAN DEN BOSSCHE CEDRIC 05:27:48.50 D 97 204.00 VIELSALM, Belgique
327 17 BAKER PETER 05:27:55.53 G1 10 291.00 LEWES,EAST SUSSEX, Royaume-Uni
328 186 FICKERS CLAUDE 05:27:56.23 F 66 235.00 Bruxelles, Belgique
329 129 WINNE JOS 05:28:00.57 E 95 206.00 Roeselare, Belgique
330 332 POSTHOUWER DIRK 05:28:11.46 E 96 205.00 MAASTRICHT, Pays-Bas
331 946 LAHEURTE AVRIL 05:28:27.77 A 2 299.00 AUXON DESSOUS, France
332 550 BORTIER JURGEN 05:29:04.70 E 97 204.00 roeselare, Belgique
333 533 DEWAELE LOIS 05:29:11.80 C 54 247.00 Overijse, Belgique
334 717 DE SCHEPPER JOHN PAUL 05:29:17.38 E 98 203.00 Arona Tenerife, Espagne
335 667 DEPRAETERE ROEL 05:29:19.30 D 98 203.00 Wortgem-Petegem, Belgique
336 860 EVERAERT FILIP 05:29:30.18 D 99 202.00 , Belgique
337 785 PAGNON LIONEL 05:29:31.12 F 67 234.00 FONTENAY LE PESNEL, France
338 498 DESSEYN FILIP 05:29:34.80 D 100 201.00 INGELMUNSTER, Belgique
339 570 TACK MICHIEL 05:29:35.16 C 55 246.00 Rumbeke, Belgique
340 528 STEENACKERS GUNTHER 05:29:39.96 E 99 202.00 Wolvertem, Belgique
341 165 EGELS JOHAN 05:29:39.98 E 100 201.00 Londerzeel, Belgique
342 675 DEVRIESE FRANK 05:29:42.60 F 68 233.00 BEVEREN, Belgique
343 262 JACOBS NATHAN 05:29:45.80 C 56 245.00 Antwerpen, Belgique
344 610 MICHIELSEN STIJN 05:29:46.01 D 101 200.00 Antwerpen, Belgique
345 494 PEETERS TIM 05:29:52.33 E 101 200.00 Balen, Belgique
346 418 BLOMME MARIEKE 05:29:53.02 AB 4 297.00 Mariakerke, Belgique
347 516 VERVAEKE TIMOTHY 05:29:54.77 D 102 199.00 Lauwe, Belgique
348 707 GODET STEPHANE 05:29:57.96 D 103 198.00 Ailly le haut clocher, France
349 841 LEFEBVRE ALEXANDRE 05:30:00.15 D 104 197.00 Chambery, France
350 684 TIMPERMAN ELKE 05:30:05.82 A 3 298.00 rumbeke, Belgique
351 307 DE MULDER KENNY 05:30:10.57 D 105 196.00 Nazareth, Belgique
352 549 MALTEZ SERGIO 05:30:10.78 E 102 199.00 HOSCHEID, Luxembourg
353 673 DOMINIQUE LEBLANC 05:30:18.36 F 69 232.00 evron, France
354 948 VERHENNE TIM 05:30:26.58 C 57 244.00 HEULE, Belgique
355 321 MALLET CYRIL 05:30:27.16 E 103 198.00 BRESLES, France
356 136 VANDENBERGHE RUDY 05:30:27.73 G1 11 290.00 Roeselare, Belgique
357 252 HAELTERMAN JOHAN 05:30:33.19 E 104 197.00 ZOTTEGEM, Belgique
358 4 DEWINTER MICHEL 05:30:34.51 G1 12 289.00 CHATELET, Belgique
359 254 HEYMANS TIM 05:30:35.24 D 106 195.00 EREMBODEGEM, Belgique
360 32 VILLANCE JULIEN 05:30:41.03 G2 4 297.00 FAYS LES VENEURS, Belgique
361 314 VAN NIEUWENBORGH HERMAN 05:30:47.16 G1 13 288.00 Aalst, Belgique
362 292 CHOQUET DAVID 05:30:55.03 E 105 196.00 MERCATEL, France
363 271 DANGLETERRE CYRIL 05:30:56.78 E 106 195.00 DAINVILLE, France
364 7 VILLANCE JOSEPH 05:30:58.45 G1 14 287.00 , Belgique
365 855 MOREAUX MICHAEL 05:30:59.97 E 107 194.00 Blanmont, Belgique
366 518 VAN SEETERS RAY 05:31:06.51 G1 15 286.00 VLEUTEN, Pays-Bas
367 416 NUTTIN THIJS 05:31:13.26 C 58 243.00 WEVELGEM, Belgique
368 415 OPSOMER THIBEAU 05:31:50.85 C 59 242.00 OUDENAARDE, Belgique
369 837 ROUXEL STEPHANE 05:31:57.16 F 70 231.00 sainte adresse, France
370 838 FOIREST MICKAEL 05:32:10.66 E 108 193.00 le havre, France
371 886 GELPI MICHAEL 05:32:26.52 E 109 192.00 LADEVZE, Belgique
372 255 LE SCIELLOUR PHILIPPE 05:32:50.68 F 71 230.00 Asnieres, France
373 732 ZOCCHETTO FIRMIN 05:33:09.48 C 60 241.00 Paris, France
374 656 POMBOURCQ ROMUALD 05:33:43.77 E 110 191.00 reims, France
375 304 HOLLEVOET ANTON 05:33:51.06 C 61 240.00 Brussel, Belgique
376 577 ROSSEEL CEDRIC 05:34:07.01 C 62 239.00 Izegem, Belgique
377 162 DISCHLOVOI OLIVIER 05:34:17.11 C 63 238.00 INGELMUNSTER, Belgique
378 733 BLOCKELET MATHIAS 05:34:39.52 C 64 237.00 La Madeleine, France
379 734 GIEL ALEXANDRE 05:34:41.46 C 65 236.00 Toutencourt, France
380 164 DE SCHEPPER TOM 05:34:55.18 E 111 190.00 Sint Niklaas, Belgique
381 527 DE DAUW BENNY 05:34:56.12 E 112 189.00 Sint Niklaas, Belgique
382 526 NIJS JOHAN 05:34:56.48 F 72 229.00 SINT NIKLAAS, Belgique
383 706 DE RIDDER KAREL 05:34:56.76 D 107 194.00 Brakel, Belgique
384 348 SALLEM CLEMENT 05:35:17.54 C 66 235.00 , France
385 120 FOSSAERT DIETER 05:37:04.96 D 108 193.00 Roeselare, Belgique
386 730 HENRY ALBAN 05:37:10.76 D 109 192.00 tancarville, France
387 458 ROELANDT BART 05:37:12.10 D 110 191.00 Horebeke, Belgique
388 876 DRESER MANUEL 05:37:14.84 E 113 188.00 brugge, Belgique
389 864 GUILLIER ROMAIN 05:37:16.64 D 111 190.00 Nanterre, France
390 210 GELUK YVA 05:37:27.49 A 4 297.00 MIDDELBURG, Pays-Bas
391 867 DE VOS CHRISTOPHE 05:37:27.63 E 114 187.00 KRUISEM, Belgique
392 403 VAN NUFFEL GUY 05:37:29.37 F 73 228.00 Dendermonde, Belgique
393 401 VAN DEN ABBEELE PASCAL 05:37:31.94 E 115 186.00 Moerbeke-Waas, Belgique
394 944 LENOIR LOIC 05:37:36.75 D 112 189.00 GRANDMETZ, Belgique
395 843 BOMBAERT SABINE 05:37:42.04 AB 5 296.00 Geraardsbergen, Belgique
396 799 DEDOBBELEER SVEN 05:37:42.18 E 116 185.00 Sint-Pieters-Leeuw, Belgique
397 557 PETIT ALAIN 05:37:43.15 F 74 227.00 LE MAISNIL, France
398 749 DETRAZ NICOLAS 05:37:49.58 D 113 188.00 DANNES, France
399 918 VERBEKE ARTHUR 05:37:58.33 C 67 234.00 KORTRIJK, Belgique
400 466 DEGRAVE BERT 05:37:58.45 E 117 184.00 heule, Belgique
401 888 CLAES BRECHT 05:38:03.80 D 114 187.00 Leuven, Belgique
402 256 HARDY GERD 05:38:04.11 F 75 226.00 Berchem, Belgique
403 756 COUPET-SARRAILH VINCENT 05:38:07.73 C 68 233.00 LE MANS, France
404 696 VAN DE VOORT LOES 05:38:09.13 AB 6 295.00 LAGE MIERDE, Pays-Bas
405 131 BAERT ANTOON 05:38:24.16 G2 5 296.00 Roeselare, Belgique
406 103 LEQUEUE SANDY 05:38:28.77 E 118 183.00 LEUZE-EN-HAINAUT, Belgique
407 160 DEWAELE PHILIPPE 05:38:29.24 E 119 182.00 GERAARDSBERGEN, Belgique
408 93 DE BRUYNE DIRK 05:38:45.63 E 120 181.00 Bornem, Belgique
409 85 BOSMAN TOM 05:38:46.12 E 121 180.00 Moorsel, Belgique
410 285 LEMAIRE LUC 05:39:07.49 F 76 225.00 LINT, Belgique
411 869 ROUSSEL JEAN PHILIPPE 05:39:15.05 F 77 224.00 fontaine bellenger, France
412 290 PHILIPPE JEAN YVES 05:39:32.60 D 115 186.00 Lierneux, Belgique
413 579 ANSSENS JO 05:39:35.02 D 116 185.00 Brakel, Belgique
414 640 AERTS GEERT 05:39:35.28 E 122 179.00 brakel, Belgique
415 585 VERMEIRE FREDDY 05:39:36.19 F 78 223.00 Waardamme, Belgique
416 591 KEMPF PHILIPP 05:39:36.43 D 117 184.00 Gentbrugge, Belgique
417 909 GRILLOT FREDERIC 05:39:48.71 E 123 178.00 Versailles, France
418 697 HOLLEVOET JEAN PIERRE 05:40:09.73 F 79 222.00 Brussel, Belgique
419 831 MATON VINCENT 05:40:17.19 E 124 177.00 ST GOBAIN, France
420 147 ALLIET PETER 05:40:20.77 F 80 221.00 KAPELLEN, Belgique
421 225 WIELFAERT NICO 05:40:38.10 E 125 176.00 Roeselare, Belgique
422 166 BARCLAY DANNY 05:40:46.96 F 81 220.00 Letchworth, Hertfordshire, Royaume-Uni
423 149 ADAMS DOMINIK 05:40:54.34 G1 16 285.00 Roeselare, Belgique
424 230 ROHART BRUNO 05:41:07.52 F 82 219.00 STELLA PLAGE, France
425 98 DE VECCHI AMELIE 05:41:36.87 AB 7 294.00 NAN SOUS THIL, France
426 906 LIEVENS GEOFFREY 05:41:42.03 D 118 183.00 Poelkapelle, Belgique
427 938 CROS OLIVIER 05:42:25.19 E 126 175.00 CONDE SUR VESGRE, France
428 641 PRIGENT LOIC 05:42:40.45 E 127 174.00 FOULANGUES, France
429 801 POCKET SAMMY 05:42:52.17 C 69 232.00 Halle, Belgique
430 840 PELLERAY FLORIAN 05:42:55.15 C 70 231.00 Auneuil, France
431 872 OTTEN ROB 05:43:16.56 E 128 173.00 LEIDEN, Pays-Bas
432 947 POUSSON LIONEL 05:43:17.81 E 129 172.00 REIMS, France
433 754 VAN RUYSEVELT NICOLAS 05:43:26.10 D 119 182.00 SAINT G‚RARD, Belgique
434 833 VERHAEGE CLAUDE 05:43:27.03 F 83 218.00 AALBEKE, Belgique
435 755 VANASSCHE THIERRY 05:43:27.29 E 130 171.00 MOORSELE, Belgique
436 710 RICOUARD DIDIER 05:43:28.80 F 84 217.00 étainhus, France
437 475 SARENS KURT 05:43:29.31 E 131 170.00 LONDERZEEL, Belgique
438 778 DECOUX RENAUD 05:43:32.27 C 71 230.00 PARIS, France
439 917 CROES SVEN 05:43:34.04 E 132 169.00 Schulen, Belgique
440 405 JOYE TOM 05:43:42.39 E 133 168.00 ROESELARE, Belgique
441 913 DEMUNTER ERIK 05:43:42.44 D 120 181.00 BRAKEL, Belgique
442 804 MINNE OLAF 05:43:44.72 F 85 216.00 ZEDELGEM, Belgique
443 333 AGEZ DOMINIQUE 05:43:50.04 F 86 215.00 Boves, France
444 727 BECHI OLIVIER 05:43:50.15 E 134 167.00 Paris, France
445 762 BECKERS HUGO 05:43:55.13 D 121 180.00 Sint-Amandsberg, Belgique
446 834 HERREMANS EVERT 05:43:55.79 D 122 179.00 Sint-Niklaas, Belgique
447 939 TRULLEMANS STEVE 05:44:01.74 E 135 166.00 HERNE, Belgique
448 881 CAREMANS WARD 05:44:06.67 D 123 178.00 Kalmthout, Belgique
449 701 SCHAELE DEISY 05:44:10.68 A 5 296.00 melle, Belgique
450 547 VANDENDRIESSCHE STIJN 05:44:18.22 D 124 177.00 Oudenaarde, Belgique
451 668 TRIPNAUX LOIC 05:44:19.66 D 125 176.00 achet, Belgique
452 622 JAUMOTTE CHRISTOPHE 05:44:24.27 D 126 175.00 Achet, Belgique
453 621 ANDRE ERIC 05:44:24.35 D 127 174.00 Wellin, Belgique
454 29 VERCAIGNE ANDY 05:44:31.49 E 136 165.00 ROESELARE, Belgique
455 665 DELINSELLE ERIC 05:44:31.54 E 137 164.00 REIMS, France
456 239 SIBILE MICHEL 05:44:31.61 G1 17 284.00 LANDAS, France
457 72 VANCOMPERNOLLE EDDY 05:44:34.73 F 87 214.00 Roeselare, Belgique
458 824 LAPON STIJN 05:44:36.61 C 72 229.00 Klerken, Belgique
459 71 PENEZ BART 05:44:37.89 G1 18 283.00 Roeselare, Belgique
460 118 BULCKAERT MARIO 05:44:39.07 F 88 213.00 Roeselare, Belgique
461 544 VANDEKERKHOVE MARGOT 05:44:46.12 A 6 295.00 Izegem, Belgique
462 43 DECATELLE DANY 05:44:54.54 F 89 212.00 RONSE, Belgique
463 192 DEMETS DIRK 05:45:07.56 G1 19 282.00 MOORSELEL, Belgique
464 258 SCHOENMAKERS PATRICK 05:45:08.60 D 128 173.00 DONGEN, Pays-Bas
465 119 VANRIJCKEGHEM MATHIEU 05:45:30.22 D 129 172.00 Roeselare, Belgique
466 797 TIELEMANS YVES 05:45:31.26 E 138 163.00 Herfelingen, Belgique
467 266 CUDORGE REMY 05:45:55.55 G1 20 281.00 LA VIEILLE LYRE, France
468 194 DELIE LIEN 05:46:18.70 AB 8 293.00 ROESELARE, Belgique
469 202 VANHOUTTE CHRIS 05:46:20.04 F 90 211.00 ROESELARE, Belgique
470 411 LEROY DANIEL 05:46:31.30 E 139 162.00 HAM-SUR-HEURE, Belgique
471 928 DUFOUR CLEMENT 05:46:59.86 C 73 228.00 Moncheaux, France
472 68 DUNEUFGERMAIN FLORENT 05:47:16.82 E 140 161.00 ALLONVILLE, France
473 22 BRUGGEMAN INE 05:48:06.46 A 7 294.00 Gentbrugge, Belgique
474 170 HEEREN BENNY 05:48:17.88 E 141 160.00 Pelt, Belgique
475 709 ADRIAEN STIJN 05:48:24.69 C 74 227.00 ZILLEBEKE, Belgique
476 508 WARDILL EDWARD 05:49:46.25 F 91 210.00 London, Royaume-Uni
477 503 COBB ROBERT 05:49:57.54 F 92 209.00 Corsham, Royaume-Uni
478 940 BILLY VINCENT 05:50:04.90 E 142 159.00 Le Perray en Yvelines, France
479 737 VAN DEN STEEN PIETER 05:50:14.00 D 130 171.00 Buggenhout, Belgique
480 853 SIX ROMAIN 05:50:52.45 D 131 170.00 CANTIGNY, France
481 220 BISLIP RAOUL 05:51:18.24 E 143 158.00 VEERE, Pays-Bas
482 911 VERHAEGEN DRIES 05:51:31.02 D 132 169.00 Nieuwerkerken, Belgique
483 235 VANAELST PIETER 05:51:35.44 D 133 168.00 Gottem, Belgique
484 41 DETAVERNIER CHRISTOPHE 05:51:51.83 F 93 208.00 Houthulst, Belgique
485 745 BLANQUET OLIVIER 05:52:16.02 E 144 157.00 SOISSONS, France
486 941 DE CLERCK BJORN 05:52:20.65 D 134 167.00 dendermonde, Belgique
487 676 DE RYCKE KOENRAAD 05:53:04.84 F 94 207.00 BEVEREN, Belgique
488 155 CHEESEMAN GRAHAM 05:53:09.56 F 95 206.00 BECKENHAM, Royaume-Uni
489 275 FRANCOIS RONALD 05:53:45.61 E 145 156.00 VOLLEZELE, Belgique
490 280 DUVAL SAMUEL 05:53:45.72 E 146 155.00 OISEMONT, France
491 182 ACCOU KRIST 05:54:12.20 E 147 154.00 LENDELEDE, Belgique
492 337 CORDOUAN DAVID 05:54:58.56 E 148 153.00 Bousbecque, France
493 429 GELDHOF BENNY 05:55:00.12 E 149 152.00 KUURNE, Belgique
494 344 VANDAMME KRIS 05:55:07.17 E 150 151.00 ZONNEBEKE, Belgique
495 882 VANDOOREN LUC 05:55:10.31 F 96 205.00 Ieper, Belgique
496 295 DE GROOTE HANS 05:55:18.21 E 151 150.00 Ieper, Belgique
497 408 VOLCKAERT MATTHIAS 05:55:30.66 D 135 166.00 ROESELARE, Belgique
498 323 DELPLACE JEAN-MARIE 05:55:34.90 F 97 204.00 Blaringhem, France
499 885 DROUAULT PATRRICK 05:55:39.88 F 98 203.00 MONTSURS, France
500 90 COOLENS PETER 05:55:44.81 E 152 149.00 Laarne, Belgique
501 631 DEPONDT JOCHEN 05:55:45.44 E 153 148.00 SINT-ANDRIES, Belgique
502 635 VERSYCK PETER 05:55:52.51 D 136 165.00 de haan, Belgique
503 538 VINCENT PETER 05:56:02.33 D 137 164.00 Kortrijk, Belgique
504 430 TACK LIEVEN 05:56:03.47 F 99 202.00 HEULE, Belgique
505 70 COTTRET SYLVAIN 05:56:17.54 E 154 147.00 AMIENS, France
506 859 LENOIR ERIC 05:56:21.24 F 100 201.00 SAINT DIZIER, France
507 851 BEHRENS ROBERT 05:56:24.62 D 138 163.00 WITTENBERGE, Allemagne
508 655 BEAUPREZ BART 05:57:24.19 E 155 146.00 Brugge, Belgique
509 440 VERBIEST HENDRIK 05:58:26.22 G1 21 280.00 Drongen, Belgique
510 638 HOYEZ SEBASTIEN 05:58:35.72 E 156 145.00 NIEPPE, France
511 477 WYNS MARNIK 05:58:39.83 E 157 144.00 RAMSDONK, Belgique
512 52 JIMENEZ NOEL 05:58:49.79 G2 6 295.00 CHAPONOST, France
513 874 WINNE PIETER 05:59:22.95 D 139 162.00 Menen, Belgique
514 873 BASTIAEN TIMOTHY 06:00:31.47 E 158 143.00 Harelbeke, Belgique
515 437 TRIEST JEROEN 06:00:35.10 C 75 226.00 Haaltert, Belgique
516 438 LAERENBERGH MICHIEL 06:00:35.41 E 159 142.00 Oudegem, Belgique
517 402 DEGREEF PATRICK 06:00:36.18 E 160 141.00 Oudegem, Belgique
518 788 DUBOIS GUILLAUME 06:00:36.28 E 161 140.00 Miraumont, France
519 698 NEUCKERMANS BOUTER 06:01:11.08 D 140 161.00 Meerbeke, Belgique
520 761 DHAENENS FRANK 06:01:12.60 D 141 160.00 Geraardsbergen, Belgique
521 702 PLETINCKX BRENT 06:01:12.66 C 76 225.00 Ninove, Belgique
522 678 HOLVOET LOUIS 06:01:14.45 C 77 224.00 Kortrijk, France
523 728 STRAETMANS ANTON 06:01:14.52 C 78 223.00 Drongen, Belgique
524 69 DICKHOUT JAN 06:02:00.29 G2 7 294.00 EINDHOVEN, Pays-Bas
525 920 VANCOLEN PETER 06:02:15.92 E 162 139.00 Kortrijk, Belgique
526 586 MOKRAN MIMOUN 06:02:16.24 E 163 138.00 moerkerke, Belgique
527 916 DEMEYERE WIM 06:02:20.78 E 164 137.00 Heule, Belgique
528 410 BERGIERS BRUNO 06:03:49.77 E 165 136.00 NIL-SAINT-VINCENT, Belgique
529 741 STYNEN BERT 06:04:26.28 F 101 200.00 schoten, Belgique
530 546 VAN GESTEL WILLEM JAN 06:04:54.22 C 79 222.00 Lille, Belgique
531 50 MULLINS RENE 06:05:59.67 B 1 300.00 , Irlande
532 432 VAN DEN STEEN WARRE 06:06:18.32 C 80 221.00 Hamme, Belgique
533 914 DEMUYNCK BRAM 06:06:18.69 E 166 135.00 Kuurne, Belgique
534 889 BOUCKAERT BART 06:06:21.04 E 167 134.00 Heule, Belgique
535 792 DE RIDDER PASCAL 06:06:40.79 F 102 199.00 RONSE, Belgique
536 825 BUREL FRANCK 06:07:24.17 F 103 198.00 Andeville, France
537 900 BUREL THOMAS 06:07:35.75 D 142 159.00 Mecquignies, France
538 827 CORROY JACQUES 06:07:36.32 F 104 197.00 Méru, France
539 5 CHAPMAN BEN 06:07:51.55 F 105 196.00 Maidstone, Royaume-Uni
540 483 ANTHEUNIS WIM 06:07:52.11 F 106 195.00 HERK-DE-STAD, Belgique
541 771 KOL ADWIN 06:07:53.03 F 107 194.00 Geldrop, Pays-Bas
542 593 NICHOLOSON SIMON 06:08:26.41 E 168 133.00 AYLESBURY, Royaume-Uni
543 65 AMALRIC CHRISTOPHE 06:08:46.19 E 169 132.00 COMPIèGNE, France
544 436 VAN BIESEN JO 06:08:50.34 E 170 131.00 Oudegem, Belgique
545 183 WILLIAMS DAVE 06:09:25.61 F 108 193.00 COLCHESTER, Royaume-Uni
546 601 BROUX SEBASTIEN 06:09:26.96 D 143 158.00 VALDAMPIERRE, France
547 175 GIBSON DAVE 06:09:29.01 F 109 192.00 MAIDSTONE, Royaume-Uni
548 823 BESSON FREDERIIC 06:09:45.89 E 171 130.00 PARIS, France
549 839 VANDERHAEGHEN JORIS 06:09:53.85 E 172 129.00 RONSE, Belgique
550 680 NAGEL RICHARD 06:10:02.25 F 110 191.00 s-Hertogenbosch, Pays-Bas
551 605 DE ZUTTER IVAN 06:10:44.99 F 111 190.00 Koekelare, Belgique
552 690 DEMEULEMEESTERE STEFAAN 06:12:20.84 F 112 189.00 Roeselare, Belgique
553 915 VAN PETEGHEM MIREILLE 06:12:20.94 B 2 299.00 Poperinge, Belgique
554 587 VAN HECKE EVERT 06:13:10.27 F 113 188.00 Brugge, Afghanistan
555 791 SEURINCK FREDDY 06:13:26.53 G1 22 279.00 KORTEMARK, Belgique
556 197 BRIMBOIS MARC 06:13:55.84 C 81 220.00 LANAKEN, Belgique
557 311 NANTOIS FRANCK 06:14:15.40 E 173 128.00 AMIENS, France
558 524 BEYLS BRECHT 06:15:03.23 C 82 219.00 KORTRIJK, Belgique
559 753 VERVACKE YVES 06:15:03.92 D 144 157.00 Gent, Belgique
560 923 CHARTIER SEBASTIEN 06:15:14.66 D 145 156.00 LE PERRAY EN YVELINES, France
561 569 VANDELANOTTE SARA 06:15:27.38 A 8 293.00 Gent, Belgique
562 608 LAMBIN FREDERIC 06:16:37.75 D 146 155.00 LAMORLAYE, France
563 247 COLLINSON JEREMY 06:16:41.62 G1 23 278.00 GRAYS, France
564 884 RENARD GUY 06:16:48.26 F 114 187.00 Couvin Pesches, Belgique
565 865 REVYN JURGEN 06:16:51.36 E 174 127.00 LISSEWEGE, Belgique
566 423 GOMIS FOURTADO SAM 06:16:51.48 E 175 126.00 SINT-KRUIS, Belgique
567 84 DESMET RUDI 06:16:52.48 F 115 186.00 Merelbeke, Belgique
569 812 DE CLERCQ PETER 06:17:22.33 D 147 154.00 MERELBEKE, Belgique
570 624 VERVOORT MATTIAS 06:17:22.34 D 148 153.00 BORNEM, Belgique
571 296 D HAESE KEVIN 06:18:01.90 D 149 152.00 DENDERBELLE, Belgique
572 691 ROBINSON NICHOLAS 06:18:10.44 E 176 125.00 Tunbridge Wells, Royaume-Uni
573 692 WESTON ANTHONY 06:18:10.50 E 177 124.00 TUNBRIDGE WELLS, Royaume-Uni
574 814 DE BLANGER SOFIE 06:18:20.08 AB 9 292.00 LOKEREN, Belgique
575 485 ROSSAERT JURGEN 06:18:41.49 E 178 123.00 Dendermonde, Belgique
576 552 GOETHALS WARD 06:18:45.48 C 83 218.00 ROESELARE, Belgique
577 819 TERRANOVA ANTHONY 06:18:49.37 D 150 151.00 HALLENNES-LEZ-HAUBOURDIN, France
578 446 HUYSMAN TOM 06:19:46.50 E 179 122.00 Nevele, Belgique
579 574 VAN EYCKEN SVEN 06:20:19.41 E 180 121.00 BUGGENHOUT, Belgique
580 770 PAPILLON MATTHIEU 06:22:33.09 D 151 150.00 Isneauville, France
581 139 MALAS DAVID 06:25:45.03 E 181 120.00 VIMONT, France
582 312 NANTOIS LAETITIA 06:25:51.01 AB 10 291.00 AMIENS, France
583 907 VAN DORSSELAERE ALAIN 06:26:23.91 G1 24 277.00 KEMZEKE, Belgique
584 444 CHIGNARD ETIENNE 06:27:04.04 F 116 185.00 Jaunay Clan, France
585 774 QUINTENS JOHAN 06:27:49.17 F 117 184.00 Herk-de-Stad, Belgique
586 560 VALKENBORGH KRISTOF 06:28:13.58 D 152 149.00 KAPELLEN, Belgique
587 568 DE WOLF PAULINE 06:28:28.60 A 9 292.00 Gent, Belgique
588 79 BOUTELEUX ALAIN 06:29:37.15 F 118 183.00 PONT-REMY, France
589 646 EMERICH PIERRE 06:29:43.17 D 153 148.00 Paris, France
590 808 THOREY VALENTIN 06:29:45.63 C 84 217.00 Paris, France
591 912 VERHAEGEN BRECHT 06:30:48.30 D 154 147.00 Moorsel, Belgique
592 738 DERYCKE DJANGO 06:31:12.38 E 182 119.00 ROESELARE, Belgique
593 769 FLYGARE ANDRE 06:31:33.56 E 183 118.00 DUESSELDORF, Allemagne
594 795 ROCHE WILLIAM 06:31:39.63 G2 8 293.00 , Irlande
595 768 VALENTIN HERVE 06:32:30.21 E 184 117.00 ORLEANS, France
596 224 PORTER MARTIN 06:33:18.32 F 119 182.00 ASCOT, France
597 74 DE MAN JORIS 06:34:15.50 D 155 146.00 Ruisbroek, Belgique
598 431 VAN DER BIEST SVEN 06:35:00.74 D 156 145.00 SINT-KRUIS, Belgique
599 787 SCHOTTE ANDRE 06:36:47.61 E 185 116.00 Zottegem18, Belgique
600 264 PETRUS FREDDY 06:36:47.98 G1 25 276.00 ZOTTEGEM, Belgique
601 776 THELLIER MICKAEL 06:36:52.50 D 157 144.00 ERCUIS, France
602 924 TROUSSEAU MARC 06:37:01.28 G1 26 275.00 VINCENNES, France
603 890 GOMBERT JEAN-MICHEL 06:37:02.70 G1 27 274.00 Maisons Alfort, France
604 891 GOMBERT CLEMENT 06:37:02.87 C 85 216.00 Levallois Perret, France
605 669 LECLUYSE KLAAS 06:37:34.81 F 120 181.00 POPERINGE, Belgique
606 478 VROMMAN HANNES 06:37:40.70 D 158 143.00 HEULE, Belgique
607 320 LIEBAULT STEPHANE 06:38:04.67 F 121 180.00 SAINT ETIENNE DU ROUVRAY, France
608 878 VAN VEEN JORIS 06:38:56.99 E 186 115.00 Lokeren, Belgique
609 735 RYCKOORT PIETER 06:38:57.28 E 187 114.00 Beveren-Leie, Belgique
610 580 VANDERBEKEN KRISTOF 06:39:00.17 D 159 142.00 Deerlijk, Belgique
611 581 NAESSENS KRISTOF 06:39:00.56 E 188 113.00 Deerlijk, Belgique
612 576 VANDERBRUGGHEN ARNE 06:39:01.20 D 160 141.00 DEERLIJK, Belgique
613 682 HUYSENTRUYT MATHIJS 06:39:44.32 D 161 140.00 Heule, Belgique
614 513 HUYSENTRUYT HANS 06:39:44.51 E 189 112.00 Kortrijk-Heule, Belgique
615 8087 MANCHE PHILIPPE 06:39:46.58 G1 28 273.00 REIMS, France
616 563 SCHOEPEN MARC 06:41:03.24 F 122 179.00 DENDERMONDE, Belgique
617 407 PETITGENAY DAVID 06:41:09.32 E 190 111.00 Ablain Saint Nazaire, France
618 584 DEPREZ YVES 06:41:11.03 D 162 139.00 izegem, Belgique
619 649 LIBBRECHT CEDRIC 06:41:12.77 C 86 215.00 GENT, Belgique
620 650 BRACKE ROBRECHT 06:41:12.99 C 87 214.00 GENT, Belgique
621 218 PETRIE BOB 06:41:39.28 F 123 178.00 HERTFORDSHRIE, France
622 634 BAKKER RENE 06:42:54.52 C 88 213.00 Hellevoetsluis, Pays-Bas
623 633 BAKKER CINDY 06:42:54.95 A 10 291.00 Utrecht, Pays-Bas
624 439 DE BAERDEMAEKER VINCENT 06:43:59.91 G2 9 292.00 Drongen, Belgique
625 636 AMIRAULT JEAN PHILIPPE 06:44:14.67 G1 29 272.00 beauvais, France
626 515 WARMOES JAN 06:44:45.09 D 163 138.00 Izegem, Belgique
627 661 BONELLO DAVID 06:45:29.73 E 191 110.00 Madliena, Malte
628 617 BOTTIAU JEAN 06:45:57.11 G1 30 271.00 WIGNEHIES, France
629 595 KUENTZ FRED 06:46:50.89 F 124 177.00 MULHOUSE, France
630 927 DUCHEMIN JEREMY 06:47:13.52 E 192 109.00 SEQUEDIN, France
631 67 JOLY MARC 06:48:15.06 F 125 176.00 EQUENNES ERAMECOURT, France
632 779 GOURIOU FERNAND 06:49:26.40 D 164 137.00 Appoigny, France
633 536 CONUS BENOIT 06:50:24.39 E 193 108.00 Montigny la resle, France
634 520 TARATTE MICHAEL 06:50:25.33 D 165 136.00 TISSEY, France
635 718 CAUCHY PAUL 06:52:03.79 D 166 135.00 59162, France
636 600 LUDOVIC JEAN 06:52:15.39 D 167 134.00 Henin Beaumont, France
637 248 GARREAU GILLES 06:53:06.54 F 126 175.00 Vallées en Champagne, France
638 689 SIMS STEVE 06:53:19.80 F 127 174.00 Colchester, Royaume-Uni
639 759 BLERIOT ALEXANDRE 06:54:20.91 C 89 212.00 LE MANS, France
640 811 ANCKAERT DOMINIQUE 06:54:50.55 F 128 173.00 Waregem, Belgique
641 766 DELSERT DIMITRI 06:55:00.33 D 168 133.00 ALLOUAGNE, France
642 723 SAISON NICOLAS 06:55:00.94 E 194 107.00 Labourse, France
643 699 GAIGNEUR DIMITRI 06:55:02.14 E 195 106.00 CAUCOURT, France
644 614 TOUSSAINT MAXIME 06:55:05.09 C 90 211.00 Flawinne, Belgique
645 658 VINCK LIEVE 06:55:44.13 B 3 298.00 Zoersel, Belgique
646 800 DENAYER GLEN 06:56:35.92 D 169 132.00 Lembeek, Belgique
647 931 VERCAUTEREN FREDERIK 06:56:55.57 C 91 210.00 Sombeke, Belgique
648 942 VANDOORN ANDY 06:57:06.24 E 196 105.00 wingene, Belgique
649 945 VAN CAUWENBERGHE FILIP 06:57:08.49 F 129 172.00 Wingene, Belgique
650 424 CLAUS Frank 06:57:18.12 F 130 171.00 Gand, Belgique
651 611 BABYLAS MICHEL 06:58:22.81 F 131 170.00 FLAWINNE, Belgique
652 465 DOBBELAERE WILLY 06:59:25.24 G1 31 270.00 Gent Drongen, Belgique
653 425 Duhain Koen 06:59:26.45 E 197 104.00 Drongen, Belgique
654 427 Depoortere Lionel 06:59:30.43 F 132 169.00 Vinderhoute, Belgique
655 615 VAN DOOREN PIET 06:59:42.01 G1 32 269.00 KEMZEKE, Belgique
656 426 DE BAERDEMAEKER CHRIS 06:59:43.99 E 198 103.00 DRONGEN, Belgique
657 551 WYFFELS BJORN 06:59:45.49 E 199 102.00 ROESELARE, Belgique
658 107 GOETHALS KRISTOF 06:59:46.20 E 200 101.00 DRONGEN, Belgique
659 548 NOPPE ANDY 06:59:48.58 E 201 100.00 Roeselare, Belgique
660 62 VEREECKE FREDDY 07:00:29.71 F 133 168.00 , Belgique
661 60 JOURDOIS LUDOVIC 07:01:09.03 F 134 167.00 CHIPILLY, France
662 925 COTELLE CLAUDE 07:01:41.81 F 135 166.00 martigny, France
663 519 COPPEE THOMAS 07:01:44.44 D 170 131.00 Fligny, France
664 606 PONCELET JACQUES 07:01:45.66 F 136 165.00 Jambes, Belgique
665 512 LOSSA SAMUEL 07:01:49.48 E 202 99.00 HIRSON, France
666 553 LEPOUTRE BJORN 07:02:41.69 C 92 209.00 Roeselare, Belgique
667 777 WUYTS PATRICK 07:03:18.22 F 137 164.00 Merksplas, Belgique
668 929 PERON FREDERIC 07:03:35.58 D 171 130.00 NEUILLY PLAISANCE, France
669 893 VAN DER STOCKT BART 07:03:50.39 D 172 129.00 Wielsbeke, Belgique
670 435 VAN MALDEREN BART 07:04:43.54 E 203 98.00 Oudegem, Belgique
671 420 BEECKMAN EDDY 07:04:45.38 F 138 163.00 Oudegem, Belgique
672 883 COLPAERT JOSSE 07:04:57.74 D 173 128.00 Hannuit, Belgique
673 642 SOLACROUP REMI 07:07:00.55 D 174 127.00 PERIGUEUX, France
674 937 VANNEVEL BRAM 07:07:50.71 D 175 126.00 Roeselare, Belgique
675 880 MARTIN NADINE 07:08:53.54 AB 11 290.00 Carlepont, France
676 625 PREVEL CHRISTIAN 07:08:53.90 F 139 162.00 Verneuil en Halatte, France
677 573 SCHERER NICOLAS 07:09:34.18 E 204 97.00 RAINNEVILLE, France
678 572 GOUBERT ANDRE-PIERRE 07:09:36.05 G1 33 268.00 ISSY-LES-MOULINEAUX, France
679 54 AIZIER JEAN-PIERRE 07:10:15.70 G1 34 267.00 RASTEAU, France
680 856 BRUNELLE PATRICE 07:10:39.59 D 176 125.00 Ivry sur Seine, France
681 150 DEMUYNCK RIK 07:10:56.62 F 140 161.00 Roeselare, Belgique
682 695 NOQUET THIERRY 07:14:09.99 E 205 96.00 SUCY EN BRIE, France
683 740 CAGIAO SAMBADE JOSE MANUEL 07:14:10.17 E 206 95.00 SUCY EN BRIE, France
684 849 MARTIGNON JEAN-YVES 07:14:11.89 F 141 160.00 fontenay sous bois, France
685 807 TRANZER OLIVIER 07:17:31.46 D 177 124.00 PARIS, France
686 571 CHARPIER AURELIEN 07:17:31.85 D 178 123.00 Paris, France
687 722 FORZANO JEROME 07:17:55.18 D 179 122.00 Bachy, France
688 933 HARANG BRUNO 07:18:37.35 F 142 159.00 MONTMORENCY, France
689 934 CAUDRON CHRISTOPHE 07:18:37.84 E 207 94.00 LEVALLOIS, France
690 504 KELDER ED 07:19:57.06 E 208 93.00 Oegstgeest, Pays-Bas
691 829 KORVING REMCO 07:19:58.16 F 143 158.00 Leiden, Pays-Bas
692 501 RICHARDSON ARTHUR 07:19:58.43 F 144 157.00 WARMOND, Pays-Bas
693 517 VELZEL BASTIAAN 07:19:59.18 E 209 92.00 Oegstgeest, Pays-Bas
694 507 MANS ROLAND 07:19:59.21 F 145 156.00 LEIDEN, Afghanistan
695 932 FERREIRA RICARDO 07:23:49.97 D 180 121.00 PAris, France
696 629 LAPERSE ALEXANDRE 07:24:15.44 E 210 91.00 NIEPPE, France
697 535 LOBACH TATYANA 07:28:10.34 AB 12 289.00 Valenciennes, France
698 712 BLANDFORD FRASER 07:29:07.47 E 211 90.00 Kent, Royaume-Uni
699 226 COLLYER ANDREW 07:29:07.98 E 212 89.00 Rainham, Royaume-Uni
700 222 WHARTON NIGEL 07:29:08.98 G1 35 266.00 Rochester, Royaume-Uni
701 462 VAN VLIET ARJAN 07:29:11.31 F 146 155.00 NIEUW-LEKKERLAND, Pays-Bas
702 955 VAN HOEK IVO 07:29:34.86 F 147 154.00 , Pays-Bas
703 922 GROENEVELD HUIB 07:29:49.41 F 148 153.00 NIEUW-LEKKERLAND, Pays-Bas
704 4098 JAYRAM KARL 07:30:24.54 E 213 88.00 London, Royaume-Uni
705 582 DE RIDDER SAM 07:31:08.79 E 214 87.00 Denderbelle, Belgique
706 583 DE RIDDER TOM 07:31:10.77 F 149 152.00 Hofstade, Belgique
707 216 RICE CLIFF 07:34:51.63 F 150 151.00 HERTFORDSHIRE, Royaume-Uni
708 832 HEYENS JORIS 07:36:39.07 D 181 120.00 BEVEREN, Belgique
709 930 VERCAUTEREN MARC 07:37:54.63 F 151 150.00 Sint-Pauwels, Belgique
710 542 VAN HAELST M.A. 07:38:10.21 E 215 86.00 Amsterdam, Pays-Bas
711 543 VAN HAELST PAUL 07:38:19.24 F 152 149.00 Amsterdam, Pays-Bas
712 901 VANDENBULCKE BERTRAND 07:38:25.58 G1 36 265.00 ROUEN, France
713 902 VANDENBULCKE PASCAL 07:38:26.71 G1 37 264.00 VAL DE SAANE, France
714 596 JAEGLY ANGELIQUE 07:42:22.33 AB 13 288.00 MULHOUSE, France
715 835 ERBETTA WILLIAM 07:44:52.90 F 153 148.00 VILLEBON SUR YVETTE, France
716 828 DI MEO MICHEL 07:44:53.25 F 154 147.00 Villebon sur yvette, France
717 598 VAN GORP GERTJAN 07:45:01.25 D 182 119.00 Lille, Belgique
718 545 CANNAERTS RUBEN 07:46:31.54 D 183 118.00 Poederlee, Belgique
719 61 ROCHER DENIS 07:49:10.60 G2 10 291.00 JARGEAU, France
720 713 DAUVERGNE LAURENT 08:01:46.78 F 155 146.00 MONTROUGE, France
721 628 FOX IAN 08:07:34.53 F 156 145.00 Colchester, Royaume-Uni
722 724 BOT KEVIN 08:13:50.56 E 216 85.00 Sint-Amandsberg, Belgique
723 541 DE GROOTE PHILIP 08:13:50.86 F 157 144.00 Gentbrugge, Belgique
724 764 VAN DE WALLE PIETER 08:13:52.53 E 217 84.00 , Belgique
725 511 CALLIER SVEN 08:13:52.60 D 184 117.00 Gent, Belgique
726 562 GERYL JELKE 08:13:53.64 A 11 290.00 Gentbrugge, Belgique
727 731 DE BRUYCKERE THELMA 08:13:53.95 A 12 289.00 Gentbrugge, Belgique
728 509 HOEDAERT LENNERT 08:13:56.26 D 185 116.00 Gentbrugge, Belgique
729 453 JACOBS HANS 08:17:15.91 E 218 83.00 Schelderode, Belgique
730 715 MALESYS PIERRE 09:07:53.81 G1 38 263.00 BOISSY-SAINT-LEGER, France
731 566 FEY ASTRID 09:09:20.39 B 4 297.00 Bonn, Allemagne
732 565 KROBER THOMAS 09:09:21.79 F 158 143.00 Bonn, Allemagne
733 455 BERT STEENBEKE 09:16:05.17 E 219 82.00 DRONGEN, Belgique
734 564 KORTENDICK OLIVER 09:18:43.08 F 159 142.00 Bonn, Allemagne

La Vaujany

Après une saison 2020 très particulière et face à cette pandémie qui s'étire en longueur, nous avons dû nous adapter.

Ainsi, c'est avec beaucoup de regrets que nous vous annonçons que La Vaujany ne sera pas organisée en 2021.

Nous travaillons afin que vous puissiez relever le défi de manière alternative.

Nous vous tiendrons informés.
TOP